Terminal Aerodrome Forecast
Issued by NWS

Home | Current Version | Previous Version | Text Only | Print | Product List | Glossary On
Versions: 1 2 3 4 5 6 7 8 9 10 11 12
000
FTUS45 KRIW 222300
TAFBPI
TAF
KBPI 222335Z 2300/2324 28011KT P6SM VCSH SCT030 BKN050
     FM230200 30015G27KT 4SM -SHSN SCT012 BKN025
     FM230400 33012KT P6SM VCSH SCT015 BKN045
     FM231500 32022G30KT P6SM VCSH SCT020 BKN050
     FM231900 34020G28KT P6SM SCT030 BKN080=

USA.gov is the U.S. government's official web portal to all federal, state and local government web resources and services.